Clearwater, South Carolina
Current Conditions -  °F | °C
As of 7:53 PM on Monday 20 Oct 2014 (Local Time) from KDNL Reporting Station
Clear Clear  
Wind Chill: 68°   Ceiling: Unl
Heat Index: 68°   Visibility: 10mi
Dew Point: 49°   Wind: 6mph
Humidity: 50%   Direction: 330°NNW
Pressure: 30.01"   Gusts: NA
Location:  33.51°N, 81.91°W
Report Text: KDNL 202353Z AUTO 33005KT 10SM CLR 20/09 A3001 RMK AO2 SLP160 T02000094 10250 20200 53005
Loading
Personal Weather Stations






























Interactive Weather Map
Tropical Storm Tracking
New forecast layout! Learn more

10-Day Weather Forecast

Advertisements
Track Severe Weather on mobile